Time;durP1;ratioP1;P1;durP2;ratioP2;P2;SDS_P1;SDS_P2;PMS_P1;PMS_P2;Temp;Humidity;BMP_temperature;BMP_pressure;BME280_temperature;BME280_humidity;BME280_pressure;Samples;Min_cycle;Max_cycle;Signal;HPM_P1;HPM_P2
2021/12/09 00:00:29;;;;;;;11.87;6.17;;;5.40;99.90;;;;;;2615311;47;20454;-77
2021/12/09 00:02:56;;;;;;;5.40;4.90;;;5.40;99.90;;;;;;2614402;39;20975;-77
2021/12/09 00:05:22;;;;;;;5.93;5.00;;;5.10;99.90;;;;;;2616353;39;20788;-80
2021/12/09 00:07:51;;;;;;;13.40;5.00;;;5.00;99.90;;;;;;2614685;47;20415;-79
2021/12/09 00:10:17;;;;;;;8.30;6.03;;;5.00;99.90;;;;;;2616052;39;20558;-80
2021/12/09 00:12:43;;;;;;;9.83;5.23;;;5.20;99.90;;;;;;2616804;39;20979;-80
2021/12/09 00:15:09;;;;;;;9.43;6.37;;;5.20;99.90;;;;;;2616148;54;20383;-80
2021/12/09 00:17:35;;;;;;;9.77;7.67;;;5.20;99.90;;;;;;2613685;39;20568;-79
2021/12/09 00:20:01;;;;;;;7.97;6.67;;;5.00;99.90;;;;;;2616092;39;20877;-80
2021/12/09 00:22:27;;;;;;;8.10;5.30;;;4.60;99.90;;;;;;2616088;54;20390;-78
2021/12/09 00:24:53;;;;;;;6.50;5.43;;;4.70;99.90;;;;;;2617139;54;20419;-82
2021/12/09 00:27:19;;;;;;;9.70;5.43;;;4.60;99.90;;;;;;2616997;54;20185;-78
2021/12/09 00:29:44;;;;;;;8.20;5.80;;;4.90;99.90;;;;;;2617114;54;20258;-79
2021/12/09 00:32:10;;;;;;;10.13;7.10;;;4.60;99.90;;;;;;2618311;54;20226;-80
2021/12/09 00:34:40;;;;;;;7.50;5.90;;;4.60;99.90;;;;;;2615713;54;20181;-80
2021/12/09 00:37:33;;;;;;;7.70;6.00;;;4.50;99.90;;;;;;2617977;54;20427;-80
2021/12/09 00:39:56;;;;;;;8.30;6.03;;;4.60;99.90;;;;;;2615668;54;20432;-81
2021/12/09 00:42:24;;;;;;;10.80;5.90;;;4.50;99.90;;;;;;2617885;54;20966;-81
2021/12/09 00:44:52;;;;;;;11.23;5.50;;;4.20;99.90;;;;;;2616765;46;20423;-80
2021/12/09 00:47:19;;;;;;;14.77;8.33;;;4.00;99.90;;;;;;2616705;54;20399;-81
2021/12/09 00:49:45;;;;;;;13.77;6.47;;;3.90;99.90;;;;;;2615885;47;20412;-80
2021/12/09 00:52:11;;;;;;;9.10;6.07;;;3.80;99.90;;;;;;2617085;54;20423;-78
2021/12/09 00:54:39;;;;;;;12.67;7.33;;;4.10;99.90;;;;;;2616543;47;20447;-80
2021/12/09 00:57:06;;;;;;;12.60;6.30;;;4.00;99.90;;;;;;2616120;54;20379;-78
2021/12/09 00:59:31;;;;;;;6.93;5.70;;;4.00;99.90;;;;;;2614651;47;20399;-80
2021/12/09 01:01:57;;;;;;;10.60;7.13;;;4.10;99.90;;;;;;2616924;54;20396;-81
2021/12/09 01:04:23;;;;;;;12.67;6.37;;;3.80;99.90;;;;;;2616283;54;20719;-80
2021/12/09 01:06:50;;;;;;;14.23;5.90;;;3.70;99.90;;;;;;2615949;54;20424;-78
2021/12/09 01:09:16;;;;;;;10.23;5.90;;;3.90;99.90;;;;;;2615480;54;20443;-79
2021/12/09 01:11:43;;;;;;;9.63;6.57;;;3.70;99.90;;;;;;2616076;54;20398;-80
2021/12/09 01:14:08;;;;;;;10.90;5.70;;;3.70;99.90;;;;;;2615743;54;20395;-80
2021/12/09 01:16:35;;;;;;;7.23;6.50;;;3.90;99.90;;;;;;2617260;54;20404;-81
2021/12/09 01:19:01;;;;;;;7.10;6.40;;;4.00;99.90;;;;;;2615453;47;20154;-79
2021/12/09 01:21:27;;;;;;;7.90;6.37;;;3.90;99.90;;;;;;2616217;54;20427;-79
2021/12/09 01:23:53;;;;;;;8.27;6.13;;;3.90;99.90;;;;;;2616731;39;20814;-81
2021/12/09 01:26:19;;;;;;;10.57;6.50;;;3.60;99.90;;;;;;2615982;54;20419;-80
2021/12/09 01:28:53;;;;;;;6.90;5.83;;;3.70;99.90;;;;;;2613237;54;20158;-77
2021/12/09 01:31:24;;;;;;;12.80;6.77;;;4.00;99.90;;;;;;2613293;39;20780;-77
2021/12/09 01:33:52;;;;;;;11.63;7.40;;;4.10;99.90;;;;;;2613839;54;20422;-79
2021/12/09 01:36:19;;;;;;;8.80;6.57;;;3.80;99.90;;;;;;2616312;39;21080;-78
2021/12/09 01:38:45;;;;;;;7.10;5.80;;;3.80;99.90;;;;;;2615871;47;20419;-79
2021/12/09 01:41:11;;;;;;;9.40;7.13;;;3.70;99.90;;;;;;2616392;47;20419;-78
2021/12/09 01:43:36;;;;;;;10.37;8.13;;;3.70;99.90;;;;;;2612684;47;20419;-79
2021/12/09 01:46:08;;;;;;;10.93;7.40;;;4.00;99.90;;;;;;2614503;54;20162;-79
2021/12/09 01:48:34;;;;;;;10.13;6.43;;;4.00;99.90;;;;;;2612726;47;20193;-77
2021/12/09 01:51:01;;;;;;;6.80;6.00;;;3.90;99.90;;;;;;2617020;54;20411;-79
2021/12/09 01:53:27;;;;;;;8.93;6.80;;;4.10;99.90;;;;;;2611742;54;20420;-81
2021/12/09 01:55:55;;;;;;;10.87;6.63;;;4.20;99.90;;;;;;2615627;54;20426;-79
2021/12/09 01:58:21;;;;;;;9.87;6.03;;;4.40;99.90;;;;;;2616134;39;20570;-80
2021/12/09 02:00:47;;;;;;;9.80;6.47;;;4.20;99.90;;;;;;2615801;51;20543;-75
2021/12/09 02:03:12;;;;;;;10.60;7.53;;;4.20;99.90;;;;;;2613473;46;20420;-75
2021/12/09 02:05:41;;;;;;;18.03;7.53;;;4.00;99.90;;;;;;2614896;46;20427;-74
2021/12/09 02:08:12;;;;;;;8.47;7.00;;;3.90;99.90;;;;;;2614827;54;20503;-74
2021/12/09 02:10:38;;;;;;;10.57;5.50;;;4.00;99.90;;;;;;2615660;39;20845;-74
2021/12/09 02:13:04;;;;;;;9.83;6.77;;;4.20;99.90;;;;;;2611776;47;20420;-76
2021/12/09 02:15:30;;;;;;;8.57;6.33;;;4.10;99.90;;;;;;2612717;54;20411;-73
2021/12/09 02:17:56;;;;;;;7.40;6.70;;;4.20;99.90;;;;;;2613508;54;20441;-74
2021/12/09 02:20:27;;;;;;;11.53;6.93;;;3.80;99.90;;;;;;2615590;54;20330;-74
2021/12/09 02:22:56;;;;;;;6.63;5.87;;;3.90;99.90;;;;;;2614046;47;20951;-74
2021/12/09 02:25:22;;;;;;;7.00;6.30;;;3.90;99.90;;;;;;2614478;54;20440;-73
2021/12/09 02:27:49;;;;;;;9.23;6.90;;;3.90;99.90;;;;;;2612432;47;20527;-73
2021/12/09 02:30:15;;;;;;;10.20;6.27;;;3.80;99.90;;;;;;2612131;54;20408;-76
2021/12/09 02:32:41;;;;;;;8.80;7.30;;;3.60;99.90;;;;;;2612992;54;20440;-78
2021/12/09 02:35:07;;;;;;;11.27;6.77;;;3.80;99.90;;;;;;2614845;47;20394;-74
2021/12/09 02:37:33;;;;;;;9.10;6.73;;;4.10;99.90;;;;;;2611889;54;20419;-75
2021/12/09 02:40:00;;;;;;;8.57;6.70;;;4.10;99.90;;;;;;2612862;54;20500;-75
2021/12/09 02:42:26;;;;;;;14.90;7.20;;;3.90;99.90;;;;;;2613599;54;20234;-75
2021/12/09 02:44:55;;;;;;;7.03;6.43;;;3.90;99.90;;;;;;2614436;54;20403;-74
2021/12/09 02:47:21;;;;;;;13.33;6.87;;;3.90;99.90;;;;;;2613571;54;20531;-74
2021/12/09 02:49:47;;;;;;;14.67;7.20;;;3.90;99.90;;;;;;2613963;47;20423;-74
2021/12/09 02:52:13;;;;;;;8.60;6.50;;;3.80;99.90;;;;;;2614884;54;20995;-74
2021/12/09 02:54:39;;;;;;;8.70;6.47;;;3.80;99.90;;;;;;2614821;39;20989;-75
2021/12/09 02:57:07;;;;;;;7.90;6.17;;;3.40;99.90;;;;;;2611999;54;20150;-74
2021/12/09 02:59:34;;;;;;;7.17;6.47;;;3.30;99.90;;;;;;2614246;47;20416;-73
2021/12/09 03:02:03;;;;;;;13.63;7.00;;;3.50;99.90;;;;;;2614266;54;20487;-73
2021/12/09 03:04:51;;;;;;;10.33;7.63;;;3.60;99.90;;;;;;2615159;54;20403;-74
2021/12/09 03:07:25;;;;;;;10.53;6.70;;;3.50;99.90;;;;;;2615109;54;20427;-74
2021/12/09 03:09:55;;;;;;;8.37;6.60;;;3.60;99.90;;;;;;2614798;54;20537;-75
2021/12/09 03:12:25;;;;;;;10.30;6.93;;;3.20;99.90;;;;;;2612997;54;20411;-75
2021/12/09 03:14:51;;;;;;;11.10;7.17;;;3.20;99.90;;;;;;2615085;54;20398;-76
2021/12/09 03:17:19;;;;;;;15.03;7.70;;;3.50;99.90;;;;;;2614062;47;20978;-74
2021/12/09 03:19:45;;;;;;;10.40;6.43;;;3.40;99.90;;;;;;2613491;54;20410;-74
2021/12/09 03:22:12;;;;;;;10.80;6.60;;;3.40;99.90;;;;;;2613975;47;20476;-74
2021/12/09 03:24:38;;;;;;;9.83;7.60;;;3.30;99.90;;;;;;2614072;47;20441;-73
2021/12/09 03:27:08;;;;;;;11.47;6.90;;;2.90;99.90;;;;;;2610104;47;20431;-77
2021/12/09 03:29:35;;;;;;;6.93;6.33;;;3.10;99.90;;;;;;2612391;54;20396;-74
2021/12/09 03:32:05;;;;;;;8.40;7.60;;;3.10;99.90;;;;;;2613528;47;20458;-75
2021/12/09 03:34:33;;;;;;;12.17;7.37;;;2.80;99.90;;;;;;2612845;51;20735;-75
2021/12/09 03:37:05;;;;;;;8.33;7.57;;;3.00;99.90;;;;;;2615103;47;20406;-73
2021/12/09 03:39:34;;;;;;;11.03;8.00;;;3.10;99.90;;;;;;2614178;47;20423;-75
2021/12/09 03:42:00;;;;;;;9.10;7.10;;;3.20;99.90;;;;;;2611902;54;21255;-74
2021/12/09 03:44:28;;;;;;;12.40;7.93;;;3.20;99.90;;;;;;2614214;54;21347;-74
2021/12/09 03:46:56;;;;;;;9.30;8.40;;;3.00;99.90;;;;;;2615483;47;20406;-74
2021/12/09 03:49:23;;;;;;;12.63;7.57;;;3.20;99.90;;;;;;2613805;54;20959;-74
2021/12/09 03:51:51;;;;;;;9.27;7.17;;;3.00;99.90;;;;;;2615816;39;21027;-75
2021/12/09 03:54:17;;;;;;;14.17;7.77;;;3.10;99.90;;;;;;2614769;54;20449;-74
2021/12/09 03:56:43;;;;;;;22.33;9.80;;;3.10;99.90;;;;;;2613850;54;20430;-75
2021/12/09 03:59:11;;;;;;;10.50;8.13;;;3.00;99.90;;;;;;2611065;47;20416;-74
2021/12/09 04:01:39;;;;;;;8.17;7.30;;;3.10;99.90;;;;;;2614515;54;20958;-74
2021/12/09 04:04:06;;;;;;;11.17;7.33;;;2.90;99.90;;;;;;2615288;39;21159;-74
2021/12/09 04:06:32;;;;;;;10.13;7.50;;;3.00;99.90;;;;;;2615453;54;20423;-76
2021/12/09 04:08:59;;;;;;;8.83;7.47;;;3.10;99.90;;;;;;2615093;54;20448;-75
2021/12/09 04:11:25;;;;;;;11.40;7.93;;;2.70;99.90;;;;;;2615330;47;20410;-75
2021/12/09 04:13:51;;;;;;;14.50;7.53;;;2.50;99.90;;;;;;2613664;54;20412;-75
2021/12/09 04:16:17;;;;;;;9.80;7.83;;;2.70;99.90;;;;;;2614161;39;20929;-77
2021/12/09 04:18:44;;;;;;;10.70;8.73;;;2.70;99.90;;;;;;2611414;54;20415;-74
2021/12/09 04:21:12;;;;;;;8.93;8.03;;;2.70;99.90;;;;;;2614810;54;20951;-74
2021/12/09 04:23:38;;;;;;;14.10;8.20;;;2.70;99.90;;;;;;2614703;39;20919;-74
2021/12/09 04:26:05;;;;;;;14.33;7.33;;;2.70;99.90;;;;;;2614173;31;20910;-73
2021/12/09 04:28:32;;;;;;;9.50;8.00;;;2.80;99.90;;;;;;2613427;39;21161;-75
2021/12/09 04:30:58;;;;;;;14.47;7.50;;;2.70;99.90;;;;;;2613691;54;20470;-74
2021/12/09 04:33:23;;;;;;;9.67;7.57;;;2.90;99.90;;;;;;2614206;54;20401;-74
2021/12/09 04:35:49;;;;;;;10.90;8.20;;;2.80;99.90;;;;;;2615307;47;20515;-74
2021/12/09 04:38:15;;;;;;;10.57;8.70;;;2.70;99.90;;;;;;2613619;39;21830;-77
2021/12/09 04:40:41;;;;;;;19.07;9.60;;;2.90;99.90;;;;;;2613844;39;20782;-76
2021/12/09 04:43:07;;;;;;;9.03;8.10;;;2.80;99.90;;;;;;2614819;31;20714;-75
2021/12/09 04:45:34;;;;;;;14.03;8.80;;;2.70;99.90;;;;;;2614371;54;20402;-76
2021/12/09 04:48:01;;;;;;;12.43;8.50;;;2.50;99.90;;;;;;2612751;54;20162;-75
2021/12/09 04:50:27;;;;;;;8.60;7.80;;;2.70;99.90;;;;;;2614930;54;20506;-75
2021/12/09 04:52:54;;;;;;;11.23;8.27;;;2.90;99.90;;;;;;2613839;47;21024;-74
2021/12/09 04:55:20;;;;;;;9.77;8.77;;;2.70;99.90;;;;;;2614949;47;20423;-75
2021/12/09 04:57:45;;;;;;;9.60;8.50;;;2.60;99.90;;;;;;2611449;47;20511;-76
2021/12/09 05:00:17;;;;;;;11.93;9.33;;;2.30;99.90;;;;;;2615066;47;20396;-75
2021/12/09 05:05:11;;;;;;;13.47;8.83;;;2.40;99.90;;;;;;2615203;54;20412;-75
2021/12/09 05:07:37;;;;;;;12.83;9.00;;;2.60;99.90;;;;;;2615104;54;21427;-74
2021/12/09 05:10:04;;;;;;;10.23;8.27;;;2.40;99.90;;;;;;2615744;54;20425;-75
2021/12/09 05:12:36;;;;;;;9.30;7.70;;;2.80;99.90;;;;;;2613633;47;20523;-75
2021/12/09 05:15:04;;;;;;;9.40;8.13;;;2.90;99.90;;;;;;2614895;54;20415;-75
2021/12/09 05:17:30;;;;;;;8.17;6.90;;;3.00;99.90;;;;;;2614749;54;20408;-75
2021/12/09 05:19:56;;;;;;;10.70;9.60;;;3.00;99.90;;;;;;2615336;51;20418;-74
2021/12/09 05:22:21;;;;;;;8.77;7.43;;;3.10;99.90;;;;;;2615570;47;20427;-74
2021/12/09 05:24:50;;;;;;;8.90;8.07;;;3.10;99.90;;;;;;2615380;54;20180;-75
2021/12/09 05:27:17;;;;;;;10.00;9.10;;;2.80;99.90;;;;;;2614160;54;20234;-75
2021/12/09 05:29:44;;;;;;;9.70;7.80;;;2.90;99.90;;;;;;2613322;47;20403;-75
2021/12/09 05:32:13;;;;;;;10.70;7.53;;;2.80;99.90;;;;;;2616177;54;20491;-74
2021/12/09 05:34:50;;;;;;;13.60;8.87;;;2.60;99.90;;;;;;2615191;54;20415;-75
2021/12/09 05:37:22;;;;;;;8.90;8.00;;;2.70;99.90;;;;;;2615389;47;20983;-78
2021/12/09 05:39:50;;;;;;;7.73;7.00;;;2.90;99.90;;;;;;2615079;54;20930;-74
2021/12/09 05:42:18;;;;;;;8.90;8.00;;;2.60;99.90;;;;;;2615152;54;20408;-75
2021/12/09 05:45:08;;;;;;;13.70;8.30;;;2.60;99.90;;;;;;2613827;47;20386;-75
2021/12/09 05:47:36;;;;;;;8.63;7.23;;;2.60;99.90;;;;;;2612680;54;20480;-75
2021/12/09 05:50:02;;;;;;;7.50;6.83;;;2.80;99.90;;;;;;2615138;39;20838;-75
2021/12/09 05:52:29;;;;;;;14.70;7.20;;;2.90;99.90;;;;;;2613894;47;20936;-76
2021/12/09 05:54:56;;;;;;;10.03;8.33;;;2.70;99.90;;;;;;2615576;54;20415;-75
2021/12/09 05:57:22;;;;;;;9.67;7.90;;;2.70;99.90;;;;;;2614874;54;20431;-76
2021/12/09 05:59:47;;;;;;;20.00;9.77;;;2.90;99.90;;;;;;2615755;54;20468;-76
2021/12/09 06:02:15;;;;;;;13.43;7.63;;;2.80;99.90;;;;;;2613640;31;20892;-75
2021/12/09 06:04:42;;;;;;;9.10;8.20;;;2.70;99.90;;;;;;2615326;39;20544;-76
2021/12/09 06:07:08;;;;;;;11.57;7.10;;;3.10;99.90;;;;;;2614155;54;21214;-74
2021/12/09 06:09:34;;;;;;;11.33;9.30;;;3.00;99.90;;;;;;2614574;54;20430;-75
2021/12/09 06:12:01;;;;;;;11.10;8.80;;;3.00;99.90;;;;;;2614751;39;20791;-75
2021/12/09 06:14:28;;;;;;;13.30;9.43;;;3.10;99.90;;;;;;2615160;54;20400;-75
2021/12/09 06:16:54;;;;;;;12.60;9.50;;;3.00;99.90;;;;;;2615555;51;20455;-76
2021/12/09 06:19:21;;;;;;;11.33;8.47;;;3.00;99.90;;;;;;2613543;51;20464;-75
2021/12/09 06:21:47;;;;;;;27.33;10.70;;;3.00;99.90;;;;;;2614617;47;20751;-74
2021/12/09 06:24:13;;;;;;;13.80;8.40;;;3.10;99.90;;;;;;2614253;54;20387;-75
2021/12/09 06:26:40;;;;;;;8.97;8.13;;;3.10;99.90;;;;;;2615417;54;20406;-76
2021/12/09 06:29:07;;;;;;;10.57;8.30;;;3.10;99.90;;;;;;2611819;54;20443;-75
2021/12/09 06:31:34;;;;;;;14.13;8.30;;;3.00;99.90;;;;;;2612759;54;20394;-75
2021/12/09 06:34:00;;;;;;;14.60;8.70;;;3.20;99.90;;;;;;2612520;54;20421;-75
2021/12/09 06:36:26;;;;;;;15.63;8.67;;;2.90;99.90;;;;;;2614699;47;20403;-77
2021/12/09 06:38:52;;;;;;;21.17;9.80;;;2.90;99.90;;;;;;2613095;54;20402;-78
2021/12/09 06:41:17;;;;;;;11.53;9.20;;;2.80;99.90;;;;;;2613248;54;20426;-74
2021/12/09 06:43:44;;;;;;;11.63;9.13;;;3.00;99.90;;;;;;2612454;47;20170;-75
2021/12/09 06:46:11;;;;;;;16.67;9.87;;;2.80;99.90;;;;;;2615705;54;20146;-75
2021/12/09 06:48:38;;;;;;;11.30;8.30;;;3.10;99.90;;;;;;2612652;47;20411;-75
2021/12/09 06:51:05;;;;;;;13.20;9.00;;;3.30;99.90;;;;;;2615092;54;20403;-75
2021/12/09 06:53:32;;;;;;;21.30;9.57;;;3.40;99.90;;;;;;2613644;54;20427;-76
2021/12/09 06:55:58;;;;;;;13.47;8.70;;;3.30;99.90;;;;;;2612791;47;20394;-74
2021/12/09 06:58:25;;;;;;;19.27;9.23;;;3.10;99.90;;;;;;2611481;47;20391;-76
2021/12/09 07:00:54;;;;;;;13.93;10.00;;;3.10;99.90;;;;;;2614861;47;20174;-76
2021/12/09 07:03:21;;;;;;;11.90;8.27;;;3.00;99.90;;;;;;2614318;54;20423;-75
2021/12/09 07:05:49;;;;;;;7.80;6.80;;;2.90;99.90;;;;;;2614901;54;20435;-75
2021/12/09 07:08:15;;;;;;;15.17;7.83;;;2.80;99.90;;;;;;2615157;54;20416;-74
2021/12/09 07:10:42;;;;;;;10.30;8.60;;;3.00;99.90;;;;;;2615202;47;20454;-77
2021/12/09 07:13:08;;;;;;;9.70;8.53;;;3.00;99.90;;;;;;2612448;46;20459;-74
2021/12/09 07:15:34;;;;;;;11.07;8.80;;;3.30;99.90;;;;;;2615334;47;20405;-74
2021/12/09 07:18:01;;;;;;;12.43;8.90;;;3.10;99.90;;;;;;2612306;54;20459;-75
2021/12/09 07:20:29;;;;;;;9.23;8.43;;;3.10;99.90;;;;;;2613412;54;20510;-76
2021/12/09 07:22:55;;;;;;;15.63;8.40;;;3.20;99.90;;;;;;2611228;54;20386;-76
2021/12/09 07:25:22;;;;;;;14.03;8.27;;;3.30;99.90;;;;;;2611895;54;20387;-74
2021/12/09 07:27:48;;;;;;;19.00;9.40;;;3.30;99.90;;;;;;2611334;54;20928;-74
2021/12/09 07:30:18;;;;;;;17.70;9.30;;;3.00;99.90;;;;;;2612756;54;20402;-78
2021/12/09 07:32:44;;;;;;;15.80;9.10;;;2.80;99.90;;;;;;2611133;54;20395;-78
2021/12/09 07:35:11;;;;;;;16.77;9.27;;;3.00;99.90;;;;;;2611182;54;20394;-75
2021/12/09 07:37:38;;;;;;;10.63;8.47;;;3.10;99.90;;;;;;2611372;54;22805;-76
2021/12/09 07:40:07;;;;;;;9.83;8.90;;;3.20;99.90;;;;;;2607629;46;20589;-75
2021/12/09 07:42:33;;;;;;;15.33;8.30;;;3.20;99.90;;;;;;2612377;54;20447;-76
2021/12/09 07:44:59;;;;;;;9.60;8.73;;;3.20;99.90;;;;;;2610222;54;21065;-76
2021/12/09 07:47:26;;;;;;;10.43;8.43;;;2.80;99.90;;;;;;2611027;54;20515;-74
2021/12/09 07:49:51;;;;;;;11.37;8.37;;;2.90;99.90;;;;;;2610754;54;20166;-74
2021/12/09 07:52:17;;;;;;;15.63;8.87;;;3.10;99.90;;;;;;2609641;54;20510;-76
2021/12/09 07:54:43;;;;;;;17.53;8.67;;;3.30;99.90;;;;;;2609781;54;20714;-74
2021/12/09 07:57:09;;;;;;;14.13;8.43;;;3.60;99.90;;;;;;2612415;54;21117;-77
2021/12/09 07:59:35;;;;;;;13.60;8.40;;;3.80;99.90;;;;;;2612004;47;20426;-76
2021/12/09 08:02:01;;;;;;;9.80;8.53;;;3.70;99.90;;;;;;2611312;54;20154;-78
2021/12/09 08:04:27;;;;;;;8.03;7.33;;;3.80;99.90;;;;;;2610714;54;20964;-76
2021/12/09 08:06:53;;;;;;;12.70;7.27;;;3.60;99.90;;;;;;2611600;54;20428;-75
2021/12/09 08:09:18;;;;;;;14.70;8.80;;;3.70;99.90;;;;;;2610239;51;20471;-75
2021/12/09 08:11:44;;;;;;;10.73;8.10;;;3.60;99.90;;;;;;2612452;39;20828;-77
2021/12/09 08:14:12;;;;;;;19.07;9.83;;;3.50;99.90;;;;;;2611250;54;20422;-75
2021/12/09 08:16:39;;;;;;;22.50;9.23;;;3.90;99.90;;;;;;2612338;54;20411;-76
2021/12/09 08:19:10;;;;;;;12.63;8.60;;;3.90;99.90;;;;;;2611964;47;20431;-75
2021/12/09 08:21:42;;;;;;;9.43;7.30;;;4.20;99.90;;;;;;2612288;47;20396;-75
2021/12/09 08:24:10;;;;;;;16.60;8.17;;;4.50;99.90;;;;;;2612400;54;20932;-77
2021/12/09 08:26:37;;;;;;;8.60;7.70;;;4.70;99.90;;;;;;2612936;51;20422;-75
2021/12/09 08:29:04;;;;;;;14.17;8.80;;;4.80;99.90;;;;;;2612829;54;20927;-76
2021/12/09 08:31:33;;;;;;;13.43;8.17;;;4.70;99.90;;;;;;2612367;47;20435;-79
2021/12/09 08:34:00;;;;;;;11.90;8.07;;;4.80;99.90;;;;;;2613532;54;20472;-74
2021/12/09 08:36:27;;;;;;;14.47;8.60;;;4.80;99.90;;;;;;2613463;47;20424;-75
2021/12/09 08:38:56;;;;;;;15.13;7.60;;;4.40;99.90;;;;;;2612229;54;20431;-76
2021/12/09 08:41:23;;;;;;;10.77;8.03;;;4.60;99.90;;;;;;2612365;47;20437;-77
2021/12/09 08:43:49;;;;;;;12.60;8.70;;;4.60;99.90;;;;;;2612039;47;20979;-76
2021/12/09 08:46:17;;;;;;;13.53;8.07;;;4.60;99.90;;;;;;2612979;54;20494;-75
2021/12/09 08:48:46;;;;;;;8.73;5.83;;;5.00;99.90;;;;;;2613734;54;20162;-77
2021/12/09 08:51:13;;;;;;;9.93;7.13;;;4.60;99.90;;;;;;2613936;54;20502;-75
2021/12/09 08:53:52;;;;;;;15.57;8.50;;;5.00;99.90;;;;;;2612540;39;21051;-76
2021/12/09 08:56:18;;;;;;;15.30;7.50;;;5.20;99.90;;;;;;2610676;54;21074;-76
2021/12/09 08:58:46;;;;;;;10.83;6.30;;;5.10;99.90;;;;;;2611317;47;20412;-75
2021/12/09 09:01:15;;;;;;;9.13;5.90;;;5.10;99.90;;;;;;2612906;46;20958;-76
2021/12/09 09:03:41;;;;;;;10.93;6.80;;;5.50;99.90;;;;;;2610653;47;20404;-75
2021/12/09 09:06:07;;;;;;;14.13;7.30;;;5.30;99.90;;;;;;2613723;39;20819;-75
2021/12/09 09:08:33;;;;;;;8.40;5.83;;;5.60;99.90;;;;;;2610964;54;20917;-74
2021/12/09 09:10:58;;;;;;;8.50;6.67;;;5.70;99.90;;;;;;2613584;54;20456;-74
2021/12/09 09:13:24;;;;;;;11.80;7.00;;;5.60;99.90;;;;;;2611914;54;20929;-75
2021/12/09 09:15:53;;;;;;;7.77;5.20;;;5.90;99.90;;;;;;2612891;47;20169;-75
2021/12/09 09:18:20;;;;;;;12.43;7.23;;;5.70;99.90;;;;;;2611140;47;20424;-75
2021/12/09 09:20:48;;;;;;;8.80;6.90;;;5.40;99.90;;;;;;2612721;54;20408;-76
2021/12/09 09:23:18;;;;;;;9.20;6.50;;;6.00;99.90;;;;;;2612546;54;20413;-76
2021/12/09 09:25:44;;;;;;;11.80;5.90;;;6.30;99.90;;;;;;2612607;54;20975;-76
2021/12/09 09:28:12;;;;;;;12.50;5.47;;;6.10;99.90;;;;;;2609344;46;20471;-75
2021/12/09 09:30:42;;;;;;;12.17;6.20;;;6.80;99.90;;;;;;2608998;47;20452;-74
2021/12/09 09:33:13;;;;;;;14.23;6.73;;;7.40;99.90;;;;;;2608479;47;20956;-75
2021/12/09 09:35:41;;;;;;;14.50;6.53;;;8.00;99.90;;;;;;2610175;54;20411;-74
2021/12/09 09:38:08;;;;;;;9.17;5.00;;;8.20;99.90;;;;;;2610842;54;21158;-76
2021/12/09 09:40:41;;;;;;;10.67;5.63;;;8.50;99.90;;;;;;2611483;39;22360;-75
2021/12/09 09:43:27;;;;;;;7.60;4.80;;;7.80;99.90;;;;;;2610420;54;22209;-78
2021/12/09 09:45:55;;;;;;;8.70;6.10;;;7.50;99.90;;;;;;2612229;54;20425;-74
2021/12/09 09:48:21;;;;;;;9.80;6.03;;;6.80;99.90;;;;;;2612182;39;20782;-74
2021/12/09 09:50:49;;;;;;;12.93;6.00;;;6.80;99.90;;;;;;2610734;54;20419;-74
2021/12/09 09:53:17;;;;;;;9.13;5.80;;;6.70;99.90;;;;;;2609818;54;20423;-73
2021/12/09 09:55:46;;;;;;;10.87;6.13;;;6.70;99.90;;;;;;2610403;54;20468;-75
2021/12/09 09:58:12;;;;;;;8.73;6.10;;;6.60;99.90;;;;;;2608459;54;20429;-75
2021/12/09 10:00:38;;;;;;;13.77;6.63;;;6.50;99.90;;;;;;2608545;54;21093;-76
2021/12/09 10:03:10;;;;;;;14.07;7.90;;;6.30;99.90;;;;;;2607241;47;20419;-74
2021/12/09 10:05:38;;;;;;;9.60;5.87;;;6.50;99.90;;;;;;2610229;47;20427;-74
2021/12/09 10:08:06;;;;;;;6.47;5.47;;;6.70;99.90;;;;;;2608879;54;20414;-74
2021/12/09 10:10:32;;;;;;;10.73;6.37;;;7.20;99.90;;;;;;2609685;54;20443;-73
2021/12/09 10:13:04;;;;;;;7.00;6.30;;;7.30;99.90;;;;;;2608516;54;20491;-74
2021/12/09 10:15:46;;;;;;;11.10;5.00;;;7.10;99.90;;;;;;2611035;54;20515;-75
2021/12/09 10:18:13;;;;;;;12.67;5.70;;;7.00;99.90;;;;;;2609290;54;20439;-75
2021/12/09 10:20:44;;;;;;;8.10;5.20;;;6.70;99.90;;;;;;2627622;36;21225;-76
2021/12/09 10:23:32;;;;;;;9.10;6.50;;;6.60;99.90;;;;;;2626491;36;20515;-74
2021/12/09 10:26:10;;;;;;;13.43;5.67;;;6.70;99.90;;;;;;2610478;54;20491;-74
2021/12/09 10:28:37;;;;;;;11.43;5.17;;;6.80;99.90;;;;;;2610825;54;20456;-73
2021/12/09 10:31:14;;;;;;;6.53;5.53;;;7.00;99.90;;;;;;2610833;51;20479;-75
2021/12/09 10:36:43;;;;;;;6.50;5.60;;;6.80;99.90;;;;;;2612083;54;20444;-76
2021/12/09 10:39:21;;;;;;;7.23;5.07;;;7.10;99.90;;;;;;2609701;39;21252;-74
2021/12/09 10:41:48;;;;;;;10.40;5.50;;;6.70;99.90;;;;;;2610258;39;20775;-74
2021/12/09 10:44:15;;;;;;;11.10;4.97;;;6.30;99.90;;;;;;2607758;47;20485;-74
2021/12/09 10:46:57;;;;;;;6.23;5.53;;;6.10;99.90;;;;;;2611428;54;20419;-74
2021/12/09 10:49:23;;;;;;;6.07;3.13;;;6.00;99.90;;;;;;2610999;54;21178;-74
2021/12/09 10:51:57;;;;;;;9.83;5.30;;;6.30;99.90;;;;;;2610667;54;20404;-75
2021/12/09 10:54:33;;;;;;;10.57;5.57;;;6.20;99.90;;;;;;2609510;54;20447;-75
2021/12/09 10:57:21;;;;;;;10.83;6.70;;;6.30;99.90;;;;;;2608786;54;20411;-76
2021/12/09 10:59:47;;;;;;;5.70;4.23;;;6.40;99.90;;;;;;2611771;47;21102;-74
2021/12/09 11:02:13;;;;;;;9.50;6.40;;;5.90;99.90;;;;;;2610257;47;20437;-76
2021/12/09 11:04:39;;;;;;;11.30;5.80;;;6.00;99.90;;;;;;2611149;39;20596;-74
2021/12/09 11:07:31;;;;;;;15.93;5.20;;;6.30;99.90;;;;;;2611064;47;20416;-73
2021/12/09 11:10:23;;;;;;;9.60;5.83;;;6.30;99.90;;;;;;2612715;54;20435;-75
2021/12/09 11:12:58;;;;;;;8.77;4.87;;;6.10;99.90;;;;;;2611384;39;20506;-74
2021/12/09 11:15:48;;;;;;;9.33;5.20;;;6.40;99.90;;;;;;2611248;54;20419;-75
2021/12/09 11:18:37;;;;;;;4.90;3.80;;;6.10;99.90;;;;;;2611521;47;20431;-75
2021/12/09 11:21:28;;;;;;;12.33;4.83;;;6.00;99.90;;;;;;2611330;54;20433;-75
2021/12/09 11:24:14;;;;;;;6.03;5.30;;;6.00;99.90;;;;;;2611562;54;20424;-74
2021/12/09 11:26:53;;;;;;;10.60;5.60;;;6.40;99.90;;;;;;2610706;54;20435;-74
2021/12/09 11:29:28;;;;;;;8.37;5.63;;;6.30;99.90;;;;;;2610378;54;20511;-73
2021/12/09 11:32:07;;;;;;;8.37;5.93;;;6.10;99.90;;;;;;2610166;54;20498;-74
2021/12/09 11:34:50;;;;;;;10.83;5.00;;;6.60;99.90;;;;;;2610230;54;20506;-74
2021/12/09 11:39:59;;;;;;;6.07;4.50;;;6.20;99.90;;;;;;2610652;47;20501;-74
2021/12/09 11:42:33;;;;;;;13.60;6.10;;;6.00;99.90;;;;;;2609618;54;20411;-74
2021/12/09 11:44:59;;;;;;;13.10;4.93;;;5.90;99.90;;;;;;2611424;54;20510;-73
2021/12/09 11:47:25;;;;;;;10.20;6.30;;;6.00;99.90;;;;;;2609717;54;21125;-75
2021/12/09 11:49:51;;;;;;;7.10;5.60;;;6.20;99.90;;;;;;2612551;39;20540;-73
2021/12/09 11:52:20;;;;;;;8.83;5.10;;;6.10;99.90;;;;;;2609824;54;20933;-77
2021/12/09 11:54:58;;;;;;;5.87;4.67;;;6.40;99.90;;;;;;2611112;54;20442;-74
2021/12/09 12:14:59;;;;;;;6.00;5.00;;;6.20;99.90;;;;;;2610895;39;20819;-73
2021/12/09 12:17:39;;;;;;;8.50;5.40;;;5.90;99.90;;;;;;2608207;54;21197;-74
2021/12/09 12:20:21;;;;;;;11.73;6.40;;;5.90;99.90;;;;;;2610126;54;20928;-73
2021/12/09 12:23:14;;;;;;;8.90;7.10;;;6.00;99.90;;;;;;2610493;54;20411;-75
2021/12/09 12:26:07;;;;;;;13.30;6.90;;;6.20;99.90;;;;;;2611209;39;21018;-73
2021/12/09 12:34:37;;;;;;;9.77;6.00;;;6.30;99.90;;;;;;2610456;47;20391;-76
2021/12/09 12:42:19;;;;;;;12.00;6.50;;;6.30;99.90;;;;;;2607724;54;20439;-75
2021/12/09 12:45:38;;;;;;;11.23;5.23;;;6.30;99.90;;;;;;2612148;54;20379;-75
2021/12/09 12:57:16;;;;;;;8.97;4.13;;;6.20;99.90;;;;;;2611761;54;20434;-73
2021/12/09 12:59:59;;;;;;;11.60;5.37;;;6.00;99.90;;;;;;2610214;54;20541;-74
2021/12/09 13:02:56;;;;;;;7.73;5.03;;;6.10;99.90;;;;;;2611011;54;20427;-73
2021/12/09 13:16:13;;;;;;;8.33;5.80;;;6.50;99.90;;;;;;2610536;47;20462;-72
2021/12/09 13:22:01;;;;;;;10.50;6.30;;;5.80;99.90;;;;;;2613570;47;20899;-74
2021/12/09 13:30:28;;;;;;;10.63;6.10;;;5.80;99.90;;;;;;2611419;54;20427;-75
2021/12/09 13:33:05;;;;;;;10.77;6.90;;;5.90;99.90;;;;;;2609080;54;20482;-74
2021/12/09 13:36:16;;;;;;;8.30;5.50;;;5.70;99.90;;;;;;2612104;39;20904;-73
2021/12/09 13:46:59;;;;;;;6.57;5.87;;;5.50;99.90;;;;;;2608989;54;20883;-76
2021/12/09 13:55:26;;;;;;;13.13;7.00;;;5.90;99.90;;;;;;2609245;39;21555;-75
2021/12/09 13:57:57;;;;;;;6.43;5.83;;;5.80;99.90;;;;;;2609526;54;20545;-74
2021/12/09 14:00:25;;;;;;;8.70;4.97;;;6.00;99.90;;;;;;2605295;47;20435;-74
2021/12/09 14:03:06;;;;;;;6.00;4.70;;;5.80;99.90;;;;;;2607724;47;20514;-74
2021/12/09 14:05:38;;;;;;;11.37;6.50;;;5.70;99.90;;;;;;2610510;54;20415;-74
2021/12/09 14:08:07;;;;;;;9.93;9.00;;;5.60;99.90;;;;;;2608711;54;20525;-74
2021/12/09 14:10:36;;;;;;;10.20;5.53;;;6.00;99.90;;;;;;2611930;31;21075;-76
2021/12/09 14:13:09;;;;;;;7.70;5.00;;;5.70;99.90;;;;;;2610129;47;20416;-73
2021/12/09 14:16:37;;;;;;;5.23;4.40;;;5.70;99.90;;;;;;2610008;54;20466;-74
2021/12/09 14:18:55;;;;;;;6.87;6.20;;;5.50;99.90;;;;;;2609554;54;20484;-74
2021/12/09 14:21:23;;;;;;;9.03;5.73;;;5.50;99.90;;;;;;2610565;54;20394;-76